Time;durP1;ratioP1;P1;durP2;ratioP2;P2;SDS_P1;SDS_P2;PMS_P1;PMS_P2;Temp;Humidity;BMP_temperature;BMP_pressure;BME280_temperature;BME280_humidity;BME280_pressure;Samples;Min_cycle;Max_cycle;Signal;HPM_P1;HPM_P2
2022/09/27 00:01:00;;;;;;;1.10;0.40;;;10.70;99.90;;;;;;5050497;28;20901;-76
2022/09/27 00:03:27;;;;;;;0.87;0.50;;;10.70;99.90;;;;;;5051943;28;20461;-76
2022/09/27 00:06:13;;;;;;;1.00;0.50;;;10.70;99.90;;;;;;5034132;28;20437;-76
2022/09/27 00:08:39;;;;;;;1.03;0.40;;;10.70;99.90;;;;;;5051858;28;20852;-76
2022/09/27 00:11:08;;;;;;;0.80;0.60;;;10.70;99.90;;;;;;5051845;28;20512;-76
2022/09/27 00:13:34;;;;;;;0.80;0.40;;;10.70;99.90;;;;;;5051714;28;20800;-76
2022/09/27 00:16:04;;;;;;;0.80;0.60;;;10.70;99.90;;;;;;5051742;28;20513;-76
2022/09/27 00:18:30;;;;;;;0.70;0.47;;;10.60;99.90;;;;;;5051761;28;20801;-76
2022/09/27 00:21:02;;;;;;;2.17;0.60;;;10.60;99.90;;;;;;5051908;28;20419;-76
2022/09/27 00:23:28;;;;;;;0.70;0.43;;;10.70;99.90;;;;;;5051835;28;20504;-76
2022/09/27 00:25:57;;;;;;;0.90;0.40;;;10.70;99.90;;;;;;5050297;28;20879;-76
2022/09/27 00:28:24;;;;;;;0.70;0.40;;;10.70;99.90;;;;;;5051579;28;20197;-76
2022/09/27 00:30:50;;;;;;;0.90;0.43;;;10.70;99.90;;;;;;5051348;28;20484;-76
2022/09/27 00:33:16;;;;;;;3.00;0.40;;;10.70;99.90;;;;;;5051602;28;20441;-76
2022/09/27 00:35:43;;;;;;;5.33;0.53;;;10.60;99.90;;;;;;5051345;28;20513;-76
2022/09/27 00:38:08;;;;;;;1.00;0.40;;;10.60;99.90;;;;;;5051566;28;20277;-76
2022/09/27 00:40:34;;;;;;;4.00;0.40;;;10.60;99.90;;;;;;5051314;28;21372;-76
2022/09/27 00:43:00;;;;;;;0.70;0.40;;;10.50;99.90;;;;;;5051832;28;20259;-76
2022/09/27 00:45:26;;;;;;;0.97;0.43;;;10.60;99.90;;;;;;5050853;28;20430;-76
2022/09/27 00:48:02;;;;;;;0.70;0.40;;;10.60;99.90;;;;;;5051304;28;20199;-76
2022/09/27 00:50:41;;;;;;;0.70;0.40;;;10.60;99.90;;;;;;5053187;28;20181;-76
2022/09/27 00:53:07;;;;;;;0.70;0.40;;;10.60;99.90;;;;;;5053055;28;20869;-76
2022/09/27 00:55:48;;;;;;;0.70;0.40;;;10.60;99.90;;;;;;5052853;28;20453;-76
2022/09/27 00:58:17;;;;;;;1.00;0.50;;;10.60;99.90;;;;;;5052050;28;20237;-76
2022/09/27 01:00:47;;;;;;;0.90;0.50;;;10.70;99.90;;;;;;5051643;28;20870;-76
2022/09/27 01:03:21;;;;;;;0.70;0.40;;;10.70;99.90;;;;;;5051780;28;20857;-76
2022/09/27 01:05:48;;;;;;;0.67;0.40;;;10.70;99.90;;;;;;5051180;28;20423;-76
2022/09/27 01:08:14;;;;;;;0.70;0.40;;;10.70;99.90;;;;;;5049818;28;20937;-76
2022/09/27 01:10:51;;;;;;;0.80;0.40;;;10.70;99.90;;;;;;5051197;28;20435;-76
2022/09/27 01:13:22;;;;;;;0.80;0.50;;;10.70;99.90;;;;;;5050796;28;20670;-76
2022/09/27 01:15:47;;;;;;;0.60;0.40;;;10.70;99.90;;;;;;5051072;28;20980;-76
2022/09/27 01:18:51;;;;;;;0.70;0.40;;;10.70;99.90;;;;;;5050673;28;20425;-76
2022/09/27 01:21:31;;;;;;;0.77;0.40;;;10.70;99.90;;;;;;5008069;28;20223;-76
2022/09/27 01:24:21;;;;;;;0.73;0.40;;;10.70;99.90;;;;;;5046659;28;20450;-75
2022/09/27 01:27:08;;;;;;;3.80;0.40;;;10.70;99.90;;;;;;5045050;28;20430;-76
2022/09/27 01:29:36;;;;;;;0.70;0.40;;;10.80;99.90;;;;;;5050516;28;20483;-76
2022/09/27 01:32:17;;;;;;;0.80;0.37;;;10.80;99.90;;;;;;5050230;28;20454;-76
2022/09/27 01:34:43;;;;;;;1.13;0.40;;;10.80;99.90;;;;;;5050469;28;20474;-76
2022/09/27 01:37:18;;;;;;;1.07;0.30;;;10.80;99.90;;;;;;5050342;28;20425;-75
2022/09/27 01:39:59;;;;;;;0.70;0.40;;;10.80;99.90;;;;;;5050631;28;20297;-76
2022/09/27 01:42:37;;;;;;;0.77;0.40;;;10.80;99.90;;;;;;5050148;28;20411;-76
2022/09/27 01:45:12;;;;;;;1.77;0.43;;;10.80;99.90;;;;;;5050412;28;20919;-76
2022/09/27 01:47:48;;;;;;;0.70;0.40;;;10.80;99.90;;;;;;5050141;28;20420;-75
2022/09/27 01:50:28;;;;;;;0.70;0.40;;;10.80;99.90;;;;;;5050456;28;20426;-76
2022/09/27 01:53:00;;;;;;;0.70;0.40;;;10.80;99.90;;;;;;5049968;28;20524;-76
2022/09/27 01:55:32;;;;;;;1.13;0.50;;;10.80;99.90;;;;;;5049868;28;20519;-76
2022/09/27 01:58:21;;;;;;;0.70;0.40;;;10.80;99.90;;;;;;5048779;28;20457;-76
2022/09/27 02:00:49;;;;;;;0.70;0.40;;;10.90;99.90;;;;;;5050845;28;20429;-76
2022/09/27 02:03:20;;;;;;;0.60;0.40;;;10.90;99.90;;;;;;5050037;28;20475;-76
2022/09/27 02:05:52;;;;;;;1.20;0.50;;;10.90;99.90;;;;;;5049692;28;20906;-75
2022/09/27 02:08:28;;;;;;;0.70;0.40;;;10.90;99.90;;;;;;5049698;28;20436;-75
2022/09/27 02:10:57;;;;;;;0.70;0.40;;;10.90;99.90;;;;;;5049506;28;20830;-76
2022/09/27 02:13:55;;;;;;;1.37;1.20;;;10.80;99.90;;;;;;5049534;28;20437;-76
2022/09/27 02:16:40;;;;;;;0.63;0.33;;;10.80;99.90;;;;;;5048117;28;20425;-75
2022/09/27 02:19:09;;;;;;;0.70;0.37;;;10.80;99.90;;;;;;5049637;28;20849;-75
2022/09/27 02:22:05;;;;;;;1.30;0.40;;;10.80;99.90;;;;;;5049655;28;20434;-74
2022/09/27 02:24:49;;;;;;;0.60;0.30;;;10.80;99.90;;;;;;5049862;28;20488;-76
2022/09/27 02:27:23;;;;;;;0.70;0.40;;;10.80;99.90;;;;;;5050020;28;20414;-76
2022/09/27 02:29:57;;;;;;;0.80;0.40;;;10.80;99.90;;;;;;5049864;28;20448;-75
2022/09/27 02:32:23;;;;;;;0.70;0.40;;;10.80;99.90;;;;;;5049992;28;21038;-76
2022/09/27 02:34:51;;;;;;;1.97;0.50;;;10.70;99.90;;;;;;5049988;28;20462;-76
2022/09/27 02:37:17;;;;;;;1.00;0.50;;;10.80;99.90;;;;;;5050090;28;20814;-75
2022/09/27 02:39:43;;;;;;;2.23;0.40;;;10.70;99.90;;;;;;5049805;28;20418;-75
2022/09/27 02:42:09;;;;;;;0.70;0.50;;;10.70;99.90;;;;;;5049664;28;20560;-76
2022/09/27 02:44:35;;;;;;;0.80;0.47;;;10.60;99.90;;;;;;5050078;28;20260;-76
2022/09/27 02:47:11;;;;;;;0.70;0.40;;;10.60;99.90;;;;;;5049211;28;20432;-76
2022/09/27 02:49:46;;;;;;;1.90;0.50;;;10.50;99.90;;;;;;5049191;28;20420;-76
2022/09/27 02:52:14;;;;;;;0.70;0.40;;;10.40;99.90;;;;;;5047565;28;20433;-76
2022/09/27 02:55:07;;;;;;;3.53;0.50;;;10.40;99.90;;;;;;5048708;28;20464;-76
2022/09/27 02:57:46;;;;;;;0.90;0.60;;;10.40;99.90;;;;;;5048805;28;20465;-76
2022/09/27 03:00:12;;;;;;;2.50;0.70;;;10.40;99.90;;;;;;5048917;28;20421;-76
2022/09/27 03:03:07;;;;;;;1.10;0.40;;;10.40;99.90;;;;;;5048779;28;20435;-76
2022/09/27 03:05:59;;;;;;;0.80;0.40;;;10.40;99.90;;;;;;5040961;28;20520;-76
2022/09/27 03:08:24;;;;;;;0.70;0.40;;;10.30;99.90;;;;;;5046249;28;20434;-75
2022/09/27 03:10:50;;;;;;;0.60;0.40;;;10.40;99.90;;;;;;5047125;28;20441;-76
2022/09/27 03:13:16;;;;;;;0.70;0.50;;;10.30;99.90;;;;;;5048524;28;20288;-75
2022/09/27 03:15:42;;;;;;;1.43;0.50;;;10.30;99.90;;;;;;5048471;28;20983;-76
2022/09/27 03:18:07;;;;;;;1.10;0.63;;;10.30;99.90;;;;;;5049156;28;20223;-76
2022/09/27 03:20:33;;;;;;;0.70;0.40;;;10.30;99.90;;;;;;5048480;28;20185;-76
2022/09/27 03:22:59;;;;;;;2.50;0.60;;;10.30;99.90;;;;;;5048460;28;20283;-76
2022/09/27 03:25:25;;;;;;;0.90;0.40;;;10.30;99.90;;;;;;5047298;28;20190;-76
2022/09/27 03:27:51;;;;;;;0.87;0.50;;;10.20;99.90;;;;;;5048585;28;20176;-76
2022/09/27 03:30:17;;;;;;;0.83;0.40;;;10.20;99.90;;;;;;5048492;28;20418;-76
2022/09/27 03:32:45;;;;;;;0.80;0.50;;;10.20;99.90;;;;;;5046845;28;20206;-75
2022/09/27 03:35:12;;;;;;;0.70;0.40;;;10.20;99.90;;;;;;5048275;28;20646;-75
2022/09/27 03:37:38;;;;;;;0.90;0.50;;;10.20;99.90;;;;;;5048625;28;20475;-75
2022/09/27 03:40:05;;;;;;;0.80;0.60;;;10.20;99.90;;;;;;5047052;28;20798;-77
2022/09/27 03:42:31;;;;;;;1.20;0.63;;;10.20;99.90;;;;;;5048650;28;20439;-76
2022/09/27 03:44:56;;;;;;;0.73;0.50;;;10.20;99.90;;;;;;5048320;28;20924;-76
2022/09/27 03:47:22;;;;;;;1.37;0.50;;;10.20;99.90;;;;;;5047478;28;20193;-76
2022/09/27 03:49:48;;;;;;;1.83;0.70;;;10.10;99.90;;;;;;5048584;28;20291;-75
2022/09/27 03:52:14;;;;;;;1.20;0.60;;;10.10;99.90;;;;;;5048513;28;20220;-76
2022/09/27 03:54:39;;;;;;;1.00;0.70;;;10.10;99.90;;;;;;5048291;28;20210;-76
2022/09/27 03:57:05;;;;;;;5.03;0.77;;;10.10;99.90;;;;;;5048465;28;20490;-76
2022/09/27 03:59:31;;;;;;;1.00;0.63;;;10.10;99.90;;;;;;5048345;28;20183;-76
2022/09/27 04:01:56;;;;;;;2.60;1.20;;;10.10;99.90;;;;;;5048400;28;20175;-76
2022/09/27 04:04:22;;;;;;;4.53;1.10;;;10.10;99.90;;;;;;5046887;28;20764;-76
2022/09/27 04:06:48;;;;;;;2.30;0.90;;;10.10;99.90;;;;;;5048334;28;20185;-76
2022/09/27 04:09:14;;;;;;;3.37;0.80;;;10.10;99.90;;;;;;5048378;28;20421;-76
2022/09/27 04:11:40;;;;;;;2.60;0.80;;;10.00;99.90;;;;;;5048392;28;20497;-75
2022/09/27 04:14:07;;;;;;;2.73;0.80;;;10.00;99.90;;;;;;5046628;28;20299;-76
2022/09/27 04:16:33;;;;;;;2.87;0.80;;;10.00;99.90;;;;;;5048561;28;20173;-76
2022/09/27 04:19:00;;;;;;;2.17;1.20;;;10.00;99.90;;;;;;5048241;28;20424;-76
2022/09/27 04:21:26;;;;;;;5.00;0.93;;;10.00;99.90;;;;;;5050234;28;20954;-75
2022/09/27 04:23:52;;;;;;;3.00;1.30;;;9.90;99.90;;;;;;5051972;28;20432;-76
2022/09/27 04:26:19;;;;;;;2.27;1.17;;;10.00;99.90;;;;;;5050626;28;20472;-76
2022/09/27 04:28:45;;;;;;;2.40;1.33;;;9.90;99.90;;;;;;5052021;28;20732;-76
2022/09/27 04:31:11;;;;;;;5.43;1.30;;;9.90;99.90;;;;;;5051979;28;20454;-77
2022/09/27 04:33:37;;;;;;;6.63;1.80;;;9.90;99.90;;;;;;5051690;28;20439;-75
2022/09/27 04:38:47;;;;;;;2.87;1.00;;;9.90;99.90;;;;;;5051780;28;20173;-76
2022/09/27 04:41:14;;;;;;;12.43;1.40;;;9.80;99.90;;;;;;5051843;28;20910;-76
2022/09/27 04:43:40;;;;;;;5.20;0.90;;;9.80;99.90;;;;;;5051733;28;20496;-76
2022/09/27 04:46:05;;;;;;;4.10;1.07;;;9.90;99.90;;;;;;5053889;28;20428;-76
2022/09/27 04:48:31;;;;;;;2.33;0.83;;;9.80;99.90;;;;;;5051824;28;20423;-76
2022/09/27 04:51:01;;;;;;;5.00;1.00;;;9.80;99.90;;;;;;5050107;28;20189;-75
2022/09/27 04:53:28;;;;;;;5.77;1.17;;;9.80;99.90;;;;;;5051493;28;20210;-76
2022/09/27 04:55:54;;;;;;;4.93;1.27;;;9.80;99.90;;;;;;5049656;28;20532;-76
2022/09/27 04:58:23;;;;;;;3.10;1.13;;;9.80;99.90;;;;;;5050066;28;20463;-76
2022/09/27 05:00:54;;;;;;;4.90;1.50;;;9.90;99.90;;;;;;5050114;28;20465;-76
2022/09/27 05:03:21;;;;;;;2.80;0.97;;;9.90;99.90;;;;;;5051439;28;20446;-76
2022/09/27 05:05:46;;;;;;;6.10;2.07;;;9.90;99.90;;;;;;5051406;28;20791;-76
2022/09/27 05:08:12;;;;;;;5.33;1.43;;;9.90;99.90;;;;;;5051354;28;20475;-76
2022/09/27 05:10:38;;;;;;;8.00;1.47;;;9.70;99.90;;;;;;5051802;28;20661;-76
2022/09/27 05:13:03;;;;;;;1.37;1.13;;;9.70;99.90;;;;;;5051146;28;20199;-75
2022/09/27 05:15:29;;;;;;;2.60;1.33;;;9.70;99.90;;;;;;5051160;28;20259;-76
2022/09/27 05:17:55;;;;;;;5.13;1.47;;;9.70;99.90;;;;;;5051313;28;20194;-75
2022/09/27 05:20:21;;;;;;;3.83;1.10;;;9.70;99.90;;;;;;5051573;28;20255;-76
2022/09/27 05:22:46;;;;;;;6.73;1.47;;;9.60;99.90;;;;;;5051582;28;20206;-76
2022/09/27 05:25:12;;;;;;;3.73;1.40;;;9.50;99.90;;;;;;5051541;28;20421;-77
2022/09/27 05:27:38;;;;;;;7.90;1.67;;;9.50;99.90;;;;;;5050176;28;20196;-76
2022/09/27 05:30:06;;;;;;;3.37;1.40;;;9.50;99.90;;;;;;5050260;28;20227;-75
2022/09/27 05:32:33;;;;;;;6.93;1.47;;;9.50;99.90;;;;;;5049121;28;20196;-76
2022/09/27 05:34:59;;;;;;;2.50;1.30;;;9.50;99.90;;;;;;5049396;28;21012;-76
2022/09/27 05:37:25;;;;;;;3.03;1.07;;;9.50;99.90;;;;;;5033028;28;20415;-76
2022/09/27 05:39:50;;;;;;;3.73;1.00;;;9.60;99.90;;;;;;5050815;28;20856;-76
2022/09/27 05:42:18;;;;;;;7.10;1.30;;;9.50;99.90;;;;;;5050872;28;20421;-75
2022/09/27 05:44:46;;;;;;;2.10;1.10;;;9.50;99.90;;;;;;5051566;28;20180;-75
2022/09/27 05:47:12;;;;;;;5.30;1.10;;;9.50;99.90;;;;;;5051913;28;20426;-76
2022/09/27 05:49:39;;;;;;;2.93;1.30;;;9.50;99.90;;;;;;5053023;28;20511;-75
2022/09/27 05:52:05;;;;;;;1.90;1.23;;;9.40;99.90;;;;;;5053033;28;20188;-75
2022/09/27 05:54:30;;;;;;;3.33;1.33;;;9.50;99.90;;;;;;5052545;28;20821;-75
2022/09/27 05:56:57;;;;;;;4.03;1.20;;;9.50;99.90;;;;;;5051757;28;20442;-76
2022/09/27 05:59:26;;;;;;;1.30;0.80;;;9.50;99.90;;;;;;5051980;28;20179;-76
2022/09/27 06:01:52;;;;;;;3.80;1.07;;;9.40;99.90;;;;;;5050942;28;20688;-76
2022/09/27 06:04:19;;;;;;;5.93;1.30;;;9.40;99.90;;;;;;5032904;28;20454;-76
2022/09/27 06:06:45;;;;;;;3.77;1.03;;;9.40;99.90;;;;;;5050373;28;20419;-75
2022/09/27 06:09:11;;;;;;;4.30;0.80;;;9.30;99.90;;;;;;5032238;28;20945;-76
2022/09/27 06:11:37;;;;;;;4.50;1.27;;;9.40;99.90;;;;;;5048655;28;20615;-75
2022/09/27 06:14:03;;;;;;;4.73;0.70;;;9.40;99.90;;;;;;5031872;28;20497;-76
2022/09/27 06:16:29;;;;;;;1.57;0.87;;;9.40;99.90;;;;;;5048461;28;20236;-76
2022/09/27 06:18:55;;;;;;;6.83;1.20;;;9.40;99.90;;;;;;5049827;28;20420;-76
2022/09/27 06:21:21;;;;;;;3.13;1.00;;;9.40;99.90;;;;;;5049742;28;20170;-75
2022/09/27 06:23:47;;;;;;;2.70;1.23;;;9.30;99.90;;;;;;5049875;28;20441;-75
2022/09/27 06:26:13;;;;;;;3.43;1.00;;;9.20;99.90;;;;;;5048342;28;20188;-76
2022/09/27 06:28:38;;;;;;;4.93;1.00;;;9.20;99.90;;;;;;5048321;28;20176;-75
2022/09/27 06:31:07;;;;;;;1.60;0.83;;;9.00;99.90;;;;;;5049509;28;20474;-75
2022/09/27 06:33:36;;;;;;;4.10;1.13;;;9.10;99.90;;;;;;5049533;28;20220;-75
2022/09/27 06:36:04;;;;;;;1.93;0.80;;;9.00;99.90;;;;;;5048166;28;20837;-76
2022/09/27 06:38:30;;;;;;;4.47;0.93;;;9.00;99.90;;;;;;5048009;28;20411;-75
2022/09/27 06:41:00;;;;;;;3.53;1.10;;;9.00;99.90;;;;;;5049519;28;20414;-76
2022/09/27 06:43:26;;;;;;;1.20;0.73;;;9.10;99.90;;;;;;5049414;28;20193;-76
2022/09/27 06:45:52;;;;;;;2.10;0.90;;;9.20;99.90;;;;;;5049433;28;20423;-76
2022/09/27 06:48:18;;;;;;;3.20;1.40;;;9.10;99.90;;;;;;5049506;28;20598;-75
2022/09/27 06:50:45;;;;;;;3.47;1.13;;;9.20;99.90;;;;;;5047887;28;20421;-76
2022/09/27 06:53:13;;;;;;;1.00;0.83;;;9.20;99.90;;;;;;5049081;28;20473;-75
2022/09/27 06:55:39;;;;;;;5.03;1.13;;;9.30;99.90;;;;;;5049175;28;21000;-76
2022/09/27 07:00:52;;;;;;;0.80;0.63;;;9.30;99.90;;;;;;5049490;28;20418;-76
2022/09/27 07:03:18;;;;;;;1.33;0.90;;;9.40;99.90;;;;;;5049607;28;20874;-76
2022/09/27 07:06:03;;;;;;;2.70;1.23;;;9.40;99.90;;;;;;5049356;28;20486;-75
2022/09/27 07:08:29;;;;;;;2.50;1.10;;;9.40;99.90;;;;;;5049559;28;20496;-74
2022/09/27 07:11:01;;;;;;;5.50;1.17;;;9.40;99.90;;;;;;5049706;28;21072;-76
2022/09/27 07:13:35;;;;;;;1.10;0.70;;;9.40;99.90;;;;;;5049558;28;20430;-75
2022/09/27 07:16:01;;;;;;;3.80;1.17;;;9.40;99.90;;;;;;5048318;28;20802;-75
2022/09/27 07:18:27;;;;;;;1.20;0.80;;;9.40;99.90;;;;;;5049367;28;20932;-75
2022/09/27 07:20:53;;;;;;;2.60;0.80;;;9.50;99.90;;;;;;5049475;28;20184;-75
2022/09/27 07:23:19;;;;;;;2.53;0.80;;;9.50;99.90;;;;;;5049333;28;20492;-74
2022/09/27 07:25:46;;;;;;;0.80;0.67;;;9.50;99.90;;;;;;5049360;28;20759;-75
2022/09/27 07:28:16;;;;;;;1.80;0.60;;;9.50;99.90;;;;;;5049341;28;20771;-75
2022/09/27 07:30:43;;;;;;;0.97;0.70;;;9.60;99.90;;;;;;5031381;28;20431;-75
2022/09/27 07:33:10;;;;;;;2.00;0.60;;;9.60;99.90;;;;;;5050938;28;21013;-75
2022/09/27 07:35:40;;;;;;;1.00;0.60;;;9.50;99.90;;;;;;5049051;28;20463;-76
2022/09/27 07:38:11;;;;;;;0.80;0.60;;;9.50;99.90;;;;;;5049169;28;20930;-75
2022/09/27 07:40:38;;;;;;;0.80;0.50;;;9.60;99.90;;;;;;5048937;28;20406;-75
2022/09/27 07:43:04;;;;;;;1.43;0.60;;;9.70;99.90;;;;;;5048647;28;20501;-75
2022/09/27 07:45:31;;;;;;;2.80;1.00;;;9.80;99.90;;;;;;5047006;28;20482;-75
2022/09/27 07:47:57;;;;;;;2.70;0.63;;;10.00;99.90;;;;;;5048569;28;20414;-75
2022/09/27 07:50:23;;;;;;;2.60;0.60;;;9.80;99.90;;;;;;5048583;28;20426;-75
2022/09/27 07:52:50;;;;;;;1.47;0.50;;;9.90;99.90;;;;;;5048501;28;20445;-75
2022/09/27 07:55:16;;;;;;;0.73;0.50;;;9.90;99.90;;;;;;5050412;28;20485;-75
2022/09/27 07:57:43;;;;;;;0.70;0.40;;;10.00;99.90;;;;;;5052494;28;20507;-75
2022/09/27 08:00:13;;;;;;;1.67;0.60;;;10.00;99.90;;;;;;5050903;28;20420;-75
2022/09/27 08:02:40;;;;;;;1.13;0.60;;;10.00;99.90;;;;;;5050897;28;20444;-76
2022/09/27 08:05:06;;;;;;;2.40;0.90;;;10.00;99.90;;;;;;5052463;28;20769;-75
2022/09/27 08:07:32;;;;;;;1.10;0.57;;;10.00;99.90;;;;;;5050541;28;20433;-75
2022/09/27 08:09:58;;;;;;;0.80;0.50;;;10.20;99.90;;;;;;5034218;28;20426;-75
2022/09/27 08:12:24;;;;;;;1.03;0.60;;;10.20;99.90;;;;;;5052139;28;21138;-75
2022/09/27 08:14:50;;;;;;;2.33;0.50;;;10.40;99.90;;;;;;5052021;28;20291;-74
2022/09/27 08:17:18;;;;;;;0.70;0.40;;;10.50;99.90;;;;;;5052266;28;20231;-74
2022/09/27 08:19:44;;;;;;;1.07;0.50;;;10.70;99.90;;;;;;5050620;28;20419;-76
2022/09/27 08:22:12;;;;;;;1.10;0.50;;;10.80;99.90;;;;;;5052051;28;20467;-76
2022/09/27 08:24:39;;;;;;;0.80;0.60;;;10.80;99.90;;;;;;5052031;28;20446;-76
2022/09/27 08:27:06;;;;;;;2.90;0.50;;;10.80;99.90;;;;;;5051922;28;20466;-76
2022/09/27 08:29:33;;;;;;;1.83;0.57;;;10.70;99.90;;;;;;5052137;28;20463;-76
2022/09/27 08:32:01;;;;;;;0.80;0.50;;;10.90;99.90;;;;;;5050407;28;20444;-75
2022/09/27 08:34:27;;;;;;;0.80;0.40;;;10.90;99.90;;;;;;5050292;28;20463;-76
2022/09/27 08:36:54;;;;;;;1.93;0.50;;;11.20;99.90;;;;;;5050220;28;20448;-76
2022/09/27 08:39:20;;;;;;;0.93;0.63;;;11.30;99.90;;;;;;5050294;28;21289;-76
2022/09/27 08:42:10;;;;;;;2.90;0.50;;;11.20;99.90;;;;;;5051528;28;20425;-76
2022/09/27 08:44:45;;;;;;;0.90;0.50;;;11.20;99.90;;;;;;5051574;28;20851;-76
2022/09/27 08:47:28;;;;;;;0.70;0.50;;;11.00;99.90;;;;;;5051553;28;20405;-76
2022/09/27 08:49:58;;;;;;;0.80;0.50;;;11.00;99.90;;;;;;5050322;28;20476;-76
2022/09/27 08:52:58;;;;;;;1.07;0.50;;;11.20;99.90;;;;;;5051262;28;20421;-75
2022/09/27 08:55:35;;;;;;;0.70;0.40;;;11.40;99.90;;;;;;5043416;28;20480;-76
2022/09/27 08:58:03;;;;;;;2.10;0.40;;;11.60;99.90;;;;;;5049703;28;20810;-75
2022/09/27 09:00:29;;;;;;;0.73;0.47;;;12.00;99.90;;;;;;5051136;28;20421;-76
2022/09/27 09:03:00;;;;;;;0.70;0.40;;;12.00;99.90;;;;;;5051266;28;20963;-75
2022/09/27 09:05:34;;;;;;;0.70;0.40;;;12.20;99.90;;;;;;5051440;28;20417;-76
2022/09/27 09:08:29;;;;;;;1.20;0.50;;;11.90;99.90;;;;;;5050157;28;20512;-76
2022/09/27 09:14:21;;;;;;;2.97;0.60;;;11.60;99.90;;;;;;5050832;28;20436;-75
2022/09/27 09:17:11;;;;;;;1.00;0.50;;;11.10;99.90;;;;;;5050953;28;20990;-75
2022/09/27 09:19:51;;;;;;;0.80;0.50;;;10.80;99.90;;;;;;5050880;28;20468;-75
2022/09/27 09:22:56;;;;;;;1.67;0.50;;;10.50;99.90;;;;;;5051004;28;20409;-75
2022/09/27 09:25:42;;;;;;;1.00;0.50;;;10.30;99.90;;;;;;5051029;28;20422;-75
2022/09/27 09:28:19;;;;;;;2.00;0.40;;;10.10;99.90;;;;;;5051126;28;20515;-75
2022/09/27 09:31:12;;;;;;;0.70;0.40;;;9.90;99.90;;;;;;5050800;28;20412;-75
2022/09/27 09:33:48;;;;;;;3.20;0.60;;;9.80;99.90;;;;;;5050879;28;20473;-75
2022/09/27 09:36:38;;;;;;;1.47;0.50;;;9.80;99.90;;;;;;5050601;28;20459;-75
2022/09/27 09:39:07;;;;;;;1.20;0.60;;;9.80;99.90;;;;;;5050702;28;20477;-75
2022/09/27 09:41:35;;;;;;;0.80;0.50;;;9.80;99.90;;;;;;5050701;28;20422;-75
2022/09/27 09:44:20;;;;;;;1.30;0.60;;;9.60;99.90;;;;;;5050641;28;20431;-76
2022/09/27 09:46:50;;;;;;;0.80;0.40;;;9.50;99.90;;;;;;5048940;28;20940;-75
2022/09/27 09:49:25;;;;;;;0.80;0.50;;;9.40;99.90;;;;;;5050494;28;20426;-75
2022/09/27 09:51:55;;;;;;;2.27;0.60;;;9.40;99.90;;;;;;5050543;28;20411;-75
2022/09/27 09:54:22;;;;;;;0.90;0.47;;;9.60;99.90;;;;;;5050555;28;20486;-76
2022/09/27 09:56:55;;;;;;;0.80;0.50;;;9.70;99.90;;;;;;5048912;28;20471;-75
2022/09/27 09:59:44;;;;;;;1.10;0.63;;;9.90;99.90;;;;;;5050359;28;20464;-75
2022/09/27 10:02:32;;;;;;;0.77;0.57;;;10.10;99.90;;;;;;5050492;28;20411;-76
2022/09/27 10:04:58;;;;;;;0.80;0.50;;;10.30;99.90;;;;;;5050362;28;20419;-76
2022/09/27 10:07:25;;;;;;;0.90;0.70;;;11.00;99.90;;;;;;5050039;28;20796;-76
2022/09/27 10:09:54;;;;;;;1.00;0.50;;;11.70;99.90;;;;;;5050275;28;20422;-76
2022/09/27 10:12:19;;;;;;;0.70;0.60;;;12.10;99.90;;;;;;5050199;28;20444;-76
2022/09/27 10:14:48;;;;;;;1.90;0.50;;;12.20;99.90;;;;;;5033690;28;20464;-76
2022/09/27 10:17:20;;;;;;;1.00;0.73;;;12.20;99.90;;;;;;5050687;28;20779;-76
2022/09/27 10:19:53;;;;;;;1.47;0.67;;;11.90;99.90;;;;;;5051582;28;20944;-76
2022/09/27 10:22:29;;;;;;;1.80;0.70;;;11.80;99.90;;;;;;5049601;28;20955;-75
2022/09/27 10:25:05;;;;;;;3.60;1.00;;;11.80;99.90;;;;;;5050103;28;20506;-76
2022/09/27 10:27:54;;;;;;;1.77;0.90;;;12.20;99.90;;;;;;5049401;28;20479;-76
2022/09/27 10:30:30;;;;;;;1.30;0.80;;;13.00;99.90;;;;;;5044463;28;20996;-76
2022/09/27 10:33:05;;;;;;;1.20;1.10;;;13.90;99.90;;;;;;5050177;28;20439;-76
2022/09/27 10:35:38;;;;;;;4.30;1.67;;;13.80;99.90;;;;;;5050574;28;21063;-76
2022/09/27 10:38:26;;;;;;;1.13;0.67;;;14.40;99.90;;;;;;5049318;28;20422;-76
2022/09/27 10:40:54;;;;;;;3.23;0.90;;;15.10;99.90;;;;;;5050748;28;20903;-76
2022/09/27 10:43:30;;;;;;;2.03;1.37;;;14.80;99.90;;;;;;5056427;28;20526;-75
2022/09/27 10:46:08;;;;;;;3.10;1.10;;;14.60;99.90;;;;;;5051354;28;20418;-76
2022/09/27 10:48:35;;;;;;;2.40;1.10;;;14.00;99.90;;;;;;5052349;28;20434;-76
2022/09/27 10:51:07;;;;;;;2.03;1.17;;;13.60;99.90;;;;;;5050217;28;20423;-76
2022/09/27 10:53:35;;;;;;;2.40;0.90;;;13.20;99.90;;;;;;5048911;28;20515;-76
2022/09/27 10:56:01;;;;;;;1.17;0.90;;;12.90;99.90;;;;;;5050011;28;20555;-76
2022/09/27 10:58:36;;;;;;;1.70;1.00;;;12.50;99.90;;;;;;5032536;28;20450;-76
2022/09/27 11:01:05;;;;;;;3.37;0.93;;;12.30;99.90;;;;;;5048894;28;20416;-76
2022/09/27 11:03:35;;;;;;;3.77;1.17;;;12.40;99.90;;;;;;5049417;28;21077;-75
2022/09/27 11:06:19;;;;;;;4.00;1.00;;;12.40;99.90;;;;;;5049172;28;20433;-76
2022/09/27 11:08:47;;;;;;;3.97;0.90;;;12.40;99.90;;;;;;5047962;28;20457;-76
2022/09/27 11:11:13;;;;;;;2.40;0.90;;;13.20;99.90;;;;;;5049196;28;20500;-76
2022/09/27 11:13:59;;;;;;;2.40;0.90;;;13.90;99.90;;;;;;5049032;28;20579;-76
2022/09/27 11:16:44;;;;;;;1.53;0.83;;;14.20;99.90;;;;;;5047212;28;20579;-76
2022/09/27 11:19:13;;;;;;;2.03;1.30;;;13.80;99.90;;;;;;5049138;28;20395;-76
2022/09/27 11:21:44;;;;;;;1.80;0.97;;;13.80;99.90;;;;;;5049115;28;20407;-76
2022/09/27 11:24:22;;;;;;;2.30;1.00;;;13.60;99.90;;;;;;5049028;28;20923;-76
2022/09/27 11:27:07;;;;;;;1.60;0.77;;;13.60;99.90;;;;;;5048807;28;20453;-76
2022/09/27 11:29:47;;;;;;;0.90;0.57;;;13.70;99.90;;;;;;5048061;28;20417;-76
2022/09/27 11:32:17;;;;;;;0.90;0.67;;;13.90;99.90;;;;;;5047346;28;20414;-76
2022/09/27 11:35:27;;;;;;;3.43;0.80;;;13.20;99.90;;;;;;5048874;28;20508;-75
2022/09/27 11:37:58;;;;;;;1.17;0.70;;;12.90;99.90;;;;;;5011654;28;20525;-75
2022/09/27 11:40:57;;;;;;;2.67;0.53;;;12.80;99.90;;;;;;5047784;28;20417;-75
2022/09/27 11:44:01;;;;;;;1.23;0.57;;;12.50;99.90;;;;;;5048819;28;20513;-76
2022/09/27 11:46:38;;;;;;;2.80;0.60;;;12.50;99.90;;;;;;5048949;28;20495;-76
2022/09/27 11:49:28;;;;;;;1.03;0.67;;;12.50;99.90;;;;;;5049015;28;20471;-75
2022/09/27 11:52:13;;;;;;;1.10;0.60;;;12.60;99.90;;;;;;5049431;28;20774;-75
2022/09/27 11:55:19;;;;;;;2.47;0.70;;;12.80;99.90;;;;;;5049151;28;20475;-75
2022/09/27 11:57:56;;;;;;;3.10;0.80;;;13.00;99.90;;;;;;5047562;28;20438;-75
2022/09/27 12:00:23;;;;;;;1.63;1.03;;;13.80;99.90;;;;;;5047861;28;20421;-75
2022/09/27 12:03:24;;;;;;;1.63;0.50;;;14.10;99.90;;;;;;5049318;28;20434;-75
2022/09/27 12:06:09;;;;;;;4.30;0.70;;;13.90;99.90;;;;;;5049327;28;21257;-76
2022/09/27 12:08:47;;;;;;;1.83;0.80;;;14.00;99.90;;;;;;5047891;28;20895;-75
2022/09/27 12:11:33;;;;;;;4.17;0.87;;;13.50;99.90;;;;;;5049006;28;20409;-76
2022/09/27 12:14:07;;;;;;;1.00;0.60;;;13.70;99.90;;;;;;5047643;28;21306;-76
2022/09/27 12:16:36;;;;;;;4.53;1.80;;;13.70;99.90;;;;;;5048946;28;20425;-76
2022/09/27 12:19:03;;;;;;;1.20;0.60;;;13.70;99.90;;;;;;5048355;28;20410;-76
2022/09/27 12:21:31;;;;;;;1.60;0.73;;;13.30;99.90;;;;;;5048270;28;20907;-76
2022/09/27 12:23:58;;;;;;;3.60;0.80;;;13.10;99.90;;;;;;5047001;28;20517;-76
2022/09/27 12:26:39;;;;;;;2.10;0.63;;;12.80;99.90;;;;;;5047003;28;20406;-77
2022/09/27 12:29:16;;;;;;;1.57;0.80;;;12.70;99.90;;;;;;5048576;28;20787;-75
2022/09/27 12:31:58;;;;;;;1.37;0.60;;;12.50;99.90;;;;;;5046740;28;20873;-77
2022/09/27 12:34:30;;;;;;;4.63;0.80;;;12.30;99.90;;;;;;5048119;28;20862;-76
2022/09/27 12:37:24;;;;;;;3.97;1.20;;;12.20;99.90;;;;;;5048280;28;20422;-76
2022/09/27 12:40:12;;;;;;;1.70;0.77;;;12.10;99.90;;;;;;5046986;28;20437;-76
2022/09/27 12:42:53;;;;;;;1.40;0.80;;;12.00;99.90;;;;;;5051659;28;20491;-76
2022/09/27 12:45:51;;;;;;;2.50;0.60;;;11.60;99.90;;;;;;5051610;28;20504;-76
2022/09/27 12:48:22;;;;;;;5.80;0.90;;;11.50;99.90;;;;;;5051865;28;20420;-75
2022/09/27 12:51:10;;;;;;;1.70;1.10;;;11.20;99.90;;;;;;5051733;28;20467;-76
2022/09/27 12:54:15;;;;;;;3.40;0.53;;;11.00;99.90;;;;;;5051577;28;20432;-76
2022/09/27 12:57:17;;;;;;;1.20;0.67;;;10.70;99.90;;;;;;5013946;28;21154;-76
2022/09/27 13:00:05;;;;;;;3.03;0.70;;;10.60;99.90;;;;;;5051319;28;20411;-76
2022/09/27 13:03:08;;;;;;;1.87;0.90;;;10.40;99.90;;;;;;5051450;28;20416;-76
2022/09/27 13:05:36;;;;;;;3.90;0.87;;;10.30;99.90;;;;;;5051070;28;20460;-75
2022/09/27 13:08:32;;;;;;;5.07;1.00;;;10.50;99.90;;;;;;5051523;28;20509;-75
2022/09/27 13:10:57;;;;;;;1.93;1.00;;;10.60;99.90;;;;;;5052367;28;20445;-75
2022/09/27 13:13:25;;;;;;;2.20;0.63;;;10.60;99.90;;;;;;5050777;28;20517;-75
2022/09/27 13:15:57;;;;;;;1.33;0.90;;;10.60;99.90;;;;;;5049141;28;20222;-75
2022/09/27 13:18:35;;;;;;;1.30;0.90;;;10.40;99.90;;;;;;5050985;28;20901;-75
2022/09/27 13:21:08;;;;;;;1.77;0.93;;;10.50;99.90;;;;;;5050909;28;20935;-75
2022/09/27 13:23:34;;;;;;;3.83;0.90;;;10.50;99.90;;;;;;5050782;28;20441;-75
2022/09/27 13:26:28;;;;;;;2.70;0.60;;;10.60;99.90;;;;;;5049228;28;20434;-76